Time;durP1;ratioP1;P1;durP2;ratioP2;P2;SDS_P1;SDS_P2;PMS_P1;PMS_P2;Temp;Humidity;BMP_temperature;BMP_pressure;BME280_temperature;BME280_humidity;BME280_pressure;Samples;Min_cycle;Max_cycle;Signal;HPM_P1;HPM_P2
2022/06/26 00:01:47;;;;;;;0.20;0.10;;;26.30;45.50;;;;;;5071524;28;20135;-52
2022/06/26 00:04:14;;;;;;;1.70;0.47;;;26.30;45.50;;;;;;5070374;28;20227;-52
2022/06/26 00:06:41;;;;;;;0.10;0.10;;;26.30;45.50;;;;;;5073000;28;20045;-52
2022/06/26 00:09:08;;;;;;;0.63;0.08;;;26.20;45.50;;;;;;5083003;28;20055;-51
2022/06/26 00:11:36;;;;;;;0.10;0.10;;;26.20;45.50;;;;;;5081613;28;20064;-52
2022/06/26 00:14:03;;;;;;;0.30;0.10;;;26.20;45.50;;;;;;5079618;28;20044;-51
2022/06/26 00:16:30;;;;;;;0.10;0.10;;;26.20;45.50;;;;;;5071493;28;20032;-53
2022/06/26 00:18:58;;;;;;;0.10;0.10;;;26.20;45.50;;;;;;5071931;28;20115;-52
2022/06/26 00:21:25;;;;;;;0.32;0.10;;;26.20;45.50;;;;;;5069938;28;20045;-50
2022/06/26 00:23:52;;;;;;;0.20;0.10;;;26.20;45.50;;;;;;5077366;28;20052;-55
2022/06/26 00:26:19;;;;;;;0.32;0.10;;;26.20;45.50;;;;;;5071472;28;20083;-51
2022/06/26 00:28:46;;;;;;;0.45;0.43;;;26.20;45.50;;;;;;5073727;28;20131;-52
2022/06/26 00:31:13;;;;;;;0.30;0.10;;;26.20;45.50;;;;;;5069498;28;20043;-53
2022/06/26 00:33:40;;;;;;;0.30;0.10;;;26.20;45.50;;;;;;5073794;28;20873;-52
2022/06/26 00:36:09;;;;;;;0.10;0.10;;;26.20;45.50;;;;;;5073136;28;20064;-50
2022/06/26 00:38:36;;;;;;;0.10;0.10;;;26.20;45.50;;;;;;5074530;28;20060;-50
2022/06/26 00:41:05;;;;;;;1.05;0.08;;;26.20;45.60;;;;;;5076291;28;20036;-49
2022/06/26 00:43:32;;;;;;;0.10;0.10;;;26.20;45.60;;;;;;5080349;28;20127;-54
2022/06/26 00:45:59;;;;;;;0.10;0.10;;;26.20;45.60;;;;;;5071368;28;20036;-53
2022/06/26 00:48:26;;;;;;;0.15;0.15;;;26.20;45.60;;;;;;5074783;28;20048;-49
2022/06/26 00:50:54;;;;;;;0.25;0.10;;;26.20;45.60;;;;;;5081877;28;20076;-53
2022/06/26 00:53:22;;;;;;;0.57;0.10;;;26.20;45.60;;;;;;5071065;28;20056;-54
2022/06/26 00:55:49;;;;;;;0.10;0.00;;;26.20;45.60;;;;;;5074183;28;20043;-50
2022/06/26 00:58:17;;;;;;;0.35;0.00;;;26.20;45.60;;;;;;5070325;28;20101;-52
2022/06/26 01:00:44;;;;;;;0.68;0.10;;;26.20;45.60;;;;;;5088479;28;20115;-54
2022/06/26 01:03:11;;;;;;;0.20;0.10;;;26.20;45.60;;;;;;5075775;28;20049;-50
2022/06/26 01:05:39;;;;;;;0.10;0.10;;;26.20;45.60;;;;;;5078591;28;20053;-54
2022/06/26 01:08:07;;;;;;;0.00;0.00;;;26.20;45.70;;;;;;5075846;28;20045;-50
2022/06/26 01:10:37;;;;;;;0.00;0.00;;;26.20;45.70;;;;;;5071860;28;20035;-52
2022/06/26 01:13:04;;;;;;;0.20;0.20;;;26.20;45.70;;;;;;5081906;28;20075;-48
2022/06/26 01:15:32;;;;;;;0.10;0.10;;;26.20;45.60;;;;;;5077666;28;20064;-49
2022/06/26 01:17:59;;;;;;;0.40;0.05;;;26.20;45.70;;;;;;5075431;28;20041;-49
2022/06/26 01:20:27;;;;;;;0.10;0.10;;;26.20;45.70;;;;;;5074121;28;20044;-51
2022/06/26 01:23:02;;;;;;;0.08;0.00;;;26.10;45.60;;;;;;5076986;28;20890;-50
2022/06/26 01:25:41;;;;;;;0.40;0.00;;;26.10;45.60;;;;;;5054666;28;20090;-49
2022/06/26 01:28:08;;;;;;;0.00;0.00;;;26.20;45.70;;;;;;5066978;28;20040;-54
2022/06/26 01:30:36;;;;;;;0.10;0.00;;;26.10;45.60;;;;;;5074902;28;20123;-54
2022/06/26 01:33:03;;;;;;;1.17;0.10;;;26.10;45.70;;;;;;5087642;28;20428;-51
2022/06/26 01:35:30;;;;;;;0.10;0.00;;;26.10;45.70;;;;;;5074887;28;20047;-49
2022/06/26 01:38:12;;;;;;;0.10;0.10;;;26.10;45.70;;;;;;5076836;28;20118;-49
2022/06/26 01:40:40;;;;;;;1.58;0.57;;;26.10;45.70;;;;;;5075283;28;20135;-51
2022/06/26 01:43:10;;;;;;;0.73;0.10;;;26.10;45.70;;;;;;5060901;28;20113;-49
2022/06/26 01:45:45;;;;;;;1.05;0.17;;;26.10;46.30;;;;;;5060505;28;20043;-50
2022/06/26 01:48:14;;;;;;;0.73;0.00;;;26.10;45.70;;;;;;5083015;28;20041;-47
2022/06/26 01:50:43;;;;;;;0.10;0.00;;;26.10;45.80;;;;;;5085986;28;20115;-52
2022/06/26 01:53:12;;;;;;;0.75;0.00;;;26.10;45.70;;;;;;5077227;28;20121;-52
2022/06/26 01:55:40;;;;;;;0.52;0.00;;;26.10;45.70;;;;;;5074954;28;20063;-50
2022/06/26 01:58:10;;;;;;;1.85;0.10;;;26.10;45.70;;;;;;5057679;28;20157;-52
2022/06/26 02:00:40;;;;;;;0.05;0.05;;;26.10;45.80;;;;;;5085726;28;20055;-50
2022/06/26 02:03:08;;;;;;;1.75;0.55;;;26.10;45.70;;;;;;5079143;28;20067;-51
2022/06/26 02:05:35;;;;;;;0.38;0.10;;;26.10;45.70;;;;;;5078501;28;20076;-52
2022/06/26 02:08:04;;;;;;;0.88;0.00;;;26.10;45.70;;;;;;5074279;28;20070;-50
2022/06/26 02:13:39;;;;;;;0.25;0.00;;;26.00;45.60;;;;;;5073607;28;20036;-53
2022/06/26 02:16:10;;;;;;;0.68;0.05;;;26.00;45.70;;;;;;5070499;28;20036;-52
2022/06/26 02:18:38;;;;;;;0.77;0.10;;;26.00;46.30;;;;;;5055344;28;20040;-50
2022/06/26 02:21:07;;;;;;;0.63;0.03;;;26.00;45.70;;;;;;5078477;28;20044;-52
2022/06/26 02:23:35;;;;;;;0.10;0.00;;;26.00;45.70;;;;;;5085200;28;20052;-48
2022/06/26 02:26:03;;;;;;;1.20;0.00;;;26.00;45.70;;;;;;5076455;28;20044;-54
2022/06/26 02:28:31;;;;;;;0.10;0.08;;;26.10;45.80;;;;;;5074371;28;20048;-51
2022/06/26 02:30:59;;;;;;;0.80;0.05;;;26.00;45.70;;;;;;5056426;28;20049;-50
2022/06/26 02:33:28;;;;;;;0.45;0.00;;;26.00;45.70;;;;;;5082859;28;20044;-48
2022/06/26 02:35:55;;;;;;;0.00;0.00;;;26.00;45.70;;;;;;5072241;28;20138;-50
2022/06/26 02:38:24;;;;;;;0.55;0.00;;;26.00;45.70;;;;;;5082732;28;20048;-50
2022/06/26 02:40:51;;;;;;;0.52;0.00;;;26.00;45.70;;;;;;5075720;28;20049;-51
2022/06/26 02:43:23;;;;;;;0.50;0.10;;;26.00;45.70;;;;;;5066210;28;20041;-51
2022/06/26 02:45:50;;;;;;;0.40;0.00;;;26.00;45.70;;;;;;5054966;28;20063;-51
2022/06/26 02:48:17;;;;;;;2.13;0.10;;;26.00;45.70;;;;;;5080397;28;20048;-49
2022/06/26 02:50:44;;;;;;;0.10;0.00;;;26.00;45.70;;;;;;5079840;28;20532;-50
2022/06/26 02:53:11;;;;;;;0.75;0.10;;;26.00;45.70;;;;;;5076257;28;20040;-50
2022/06/26 02:55:39;;;;;;;0.05;0.00;;;26.00;45.60;;;;;;5073293;28;20553;-48
2022/06/26 02:58:06;;;;;;;0.13;0.00;;;26.00;45.70;;;;;;5057262;28;20074;-47
2022/06/26 03:00:41;;;;;;;0.10;0.00;;;26.00;45.60;;;;;;5053599;28;20052;-50
2022/06/26 03:03:08;;;;;;;0.00;0.00;;;26.00;45.70;;;;;;5077251;28;20044;-53
2022/06/26 03:05:35;;;;;;;1.00;0.00;;;26.00;45.60;;;;;;5075608;28;20425;-49
2022/06/26 03:08:02;;;;;;;0.47;0.40;;;26.00;45.70;;;;;;5073010;28;20152;-49
2022/06/26 03:10:29;;;;;;;0.38;0.00;;;26.00;45.70;;;;;;5072145;28;20433;-48
2022/06/26 03:12:56;;;;;;;0.20;0.00;;;26.00;45.70;;;;;;5067279;28;20125;-48
2022/06/26 03:15:23;;;;;;;0.85;0.08;;;26.00;45.70;;;;;;5065949;28;20044;-49
2022/06/26 03:17:57;;;;;;;1.65;0.05;;;26.00;45.70;;;;;;5061167;28;20465;-49
2022/06/26 03:20:24;;;;;;;0.75;0.10;;;26.00;45.70;;;;;;5078098;28;20040;-52
2022/06/26 03:22:51;;;;;;;0.40;0.10;;;26.00;45.70;;;;;;5077266;28;20130;-54
2022/06/26 03:25:20;;;;;;;0.10;0.00;;;26.00;45.70;;;;;;5057721;28;20036;-54
2022/06/26 03:27:47;;;;;;;0.52;0.08;;;26.00;45.70;;;;;;5050858;28;20040;-54
2022/06/26 03:30:15;;;;;;;0.40;0.20;;;26.00;45.70;;;;;;5083217;28;20484;-54
2022/06/26 03:32:48;;;;;;;0.68;0.00;;;26.00;45.70;;;;;;5084311;28;20048;-52
2022/06/26 03:35:17;;;;;;;0.10;0.10;;;26.00;45.70;;;;;;5075873;28;20048;-50
2022/06/26 03:37:46;;;;;;;0.15;0.00;;;26.00;45.70;;;;;;5073846;28;20079;-52
2022/06/26 03:40:13;;;;;;;0.85;0.10;;;26.00;45.70;;;;;;5054879;28;20415;-55
2022/06/26 03:42:41;;;;;;;1.30;0.10;;;26.00;45.70;;;;;;5085367;28;20044;-51
2022/06/26 03:45:10;;;;;;;0.43;0.00;;;26.00;45.70;;;;;;5063449;28;20047;-49
2022/06/26 03:47:37;;;;;;;0.25;0.10;;;26.00;45.70;;;;;;5077224;28;20128;-50
2022/06/26 03:50:06;;;;;;;2.22;0.45;;;26.00;45.70;;;;;;5076823;28;20465;-51
2022/06/26 03:52:36;;;;;;;0.30;0.10;;;26.00;45.70;;;;;;5080917;28;20512;-54
2022/06/26 03:55:08;;;;;;;1.10;0.00;;;26.00;45.70;;;;;;5051547;28;20409;-53
2022/06/26 03:57:36;;;;;;;0.55;0.30;;;26.00;45.60;;;;;;5075710;28;20131;-53
2022/06/26 04:00:04;;;;;;;0.00;0.00;;;26.00;46.30;;;;;;5076886;28;20037;-52
2022/06/26 04:02:44;;;;;;;1.45;0.00;;;26.00;45.70;;;;;;5074562;28;20037;-51
2022/06/26 04:05:15;;;;;;;0.95;0.00;;;26.00;45.70;;;;;;5079242;28;20113;-53
2022/06/26 04:07:45;;;;;;;0.00;0.00;;;26.00;45.70;;;;;;5074145;28;20186;-51
2022/06/26 04:10:22;;;;;;;0.35;0.20;;;26.00;46.30;;;;;;5053922;28;20520;-51
2022/06/26 04:12:49;;;;;;;0.10;0.00;;;26.00;45.70;;;;;;5081534;28;20054;-51
2022/06/26 04:15:17;;;;;;;0.65;0.10;;;25.90;45.60;;;;;;5085143;28;20048;-51
2022/06/26 04:17:44;;;;;;;0.30;0.10;;;25.90;45.60;;;;;;5058292;28;20473;-48
2022/06/26 04:20:14;;;;;;;0.15;0.10;;;26.00;45.70;;;;;;5077392;28;20048;-50
2022/06/26 04:22:44;;;;;;;0.00;0.00;;;26.00;45.60;;;;;;5076920;28;20048;-49
2022/06/26 04:25:14;;;;;;;0.90;0.00;;;26.00;45.60;;;;;;5057430;28;20032;-51
2022/06/26 04:27:41;;;;;;;1.13;0.03;;;26.00;45.60;;;;;;5068211;28;20044;-52
2022/06/26 04:30:09;;;;;;;0.10;0.10;;;26.00;46.20;;;;;;5079547;28;20562;-51
2022/06/26 04:32:36;;;;;;;0.00;0.00;;;25.90;45.50;;;;;;5077715;28;20040;-51
2022/06/26 04:35:03;;;;;;;0.52;0.00;;;26.00;45.50;;;;;;5074732;28;20544;-47
2022/06/26 04:37:30;;;;;;;0.10;0.00;;;26.00;45.50;;;;;;5070741;28;20774;-52
2022/06/26 04:39:59;;;;;;;0.55;0.10;;;26.00;45.50;;;;;;5056059;28;20056;-51
2022/06/26 04:42:26;;;;;;;0.40;0.10;;;26.00;45.50;;;;;;5086970;28;20044;-51
2022/06/26 04:44:54;;;;;;;0.85;0.10;;;26.00;45.50;;;;;;5076486;28;20044;-52
2022/06/26 04:47:23;;;;;;;0.00;0.00;;;26.00;45.50;;;;;;5065995;28;20047;-51
2022/06/26 04:50:08;;;;;;;0.28;0.10;;;26.00;45.50;;;;;;5074657;28;20528;-50
2022/06/26 04:52:35;;;;;;;0.10;0.10;;;26.00;45.50;;;;;;5072080;28;20101;-52
2022/06/26 04:55:05;;;;;;;0.35;0.10;;;26.00;45.50;;;;;;5051044;28;20440;-54
2022/06/26 04:57:37;;;;;;;0.47;0.10;;;26.00;45.40;;;;;;5077147;28;20647;-53
2022/06/26 05:00:05;;;;;;;2.92;0.22;;;26.00;45.40;;;;;;5074543;28;20119;-54
2022/06/26 05:02:33;;;;;;;0.30;0.10;;;26.00;45.40;;;;;;5075567;28;20411;-53
2022/06/26 05:05:18;;;;;;;2.42;0.10;;;26.00;45.40;;;;;;5075950;28;20044;-50
2022/06/26 05:07:53;;;;;;;0.20;0.10;;;26.00;45.40;;;;;;5074101;28;20781;-53
2022/06/26 05:10:23;;;;;;;2.63;0.10;;;26.00;45.40;;;;;;5069619;28;20052;-52
2022/06/26 05:12:53;;;;;;;0.08;0.00;;;26.00;45.30;;;;;;5078507;28;20040;-52
2022/06/26 05:15:50;;;;;;;0.05;0.00;;;26.00;45.30;;;;;;5060078;28;20037;-50
2022/06/26 05:18:18;;;;;;;0.20;0.10;;;26.00;45.30;;;;;;5067450;28;20055;-51
2022/06/26 05:20:45;;;;;;;0.10;0.10;;;26.00;45.20;;;;;;5077511;28;20113;-51
2022/06/26 05:23:14;;;;;;;0.75;0.00;;;26.00;45.30;;;;;;5066180;28;20492;-50
2022/06/26 05:26:09;;;;;;;0.10;0.00;;;26.00;45.20;;;;;;5054705;28;20040;-50
2022/06/26 05:28:37;;;;;;;0.30;0.10;;;26.00;45.20;;;;;;5071175;28;20067;-53
2022/06/26 05:31:05;;;;;;;0.10;0.10;;;26.00;45.20;;;;;;5070248;28;20028;-49
2022/06/26 05:33:36;;;;;;;0.20;0.10;;;26.00;45.20;;;;;;5079469;28;20049;-52
2022/06/26 05:36:06;;;;;;;0.20;0.10;;;26.10;45.20;;;;;;5075644;28;20105;-51
2022/06/26 05:38:33;;;;;;;0.10;0.10;;;26.10;45.20;;;;;;5078297;28;20043;-52
2022/06/26 05:41:02;;;;;;;0.75;0.10;;;26.10;45.20;;;;;;5074986;28;20125;-50
2022/06/26 05:43:31;;;;;;;0.35;0.17;;;26.10;45.20;;;;;;5080168;28;20121;-51
2022/06/26 05:45:58;;;;;;;1.25;0.15;;;26.10;45.20;;;;;;5055893;28;20068;-50
2022/06/26 05:48:48;;;;;;;1.13;0.00;;;26.10;45.20;;;;;;5067784;28;20058;-50
2022/06/26 05:51:32;;;;;;;3.03;0.10;;;26.10;45.20;;;;;;5065514;28;20040;-49
2022/06/26 05:54:17;;;;;;;2.15;0.13;;;26.10;45.20;;;;;;5072269;28;20504;-52
2022/06/26 05:56:53;;;;;;;0.28;0.10;;;26.10;45.20;;;;;;5077671;28;20513;-51
2022/06/26 05:59:36;;;;;;;0.25;0.10;;;26.20;45.20;;;;;;5070744;28;20042;-51
2022/06/26 06:02:25;;;;;;;0.20;0.20;;;26.20;45.20;;;;;;5074743;28;20097;-51
2022/06/26 06:04:52;;;;;;;1.10;0.15;;;26.20;45.20;;;;;;5075067;28;20059;-51
2022/06/26 06:07:19;;;;;;;2.90;0.88;;;26.20;45.20;;;;;;5071126;28;20525;-52
2022/06/26 06:09:47;;;;;;;0.80;0.20;;;26.20;45.20;;;;;;5050315;28;20143;-53
2022/06/26 06:12:14;;;;;;;0.95;0.28;;;26.20;45.20;;;;;;5087354;28;20400;-54
2022/06/26 06:14:42;;;;;;;3.03;0.10;;;26.20;45.20;;;;;;5085950;28;20097;-51
2022/06/26 06:19:53;;;;;;;0.80;0.28;;;26.20;45.20;;;;;;5076471;28;20177;-51
2022/06/26 06:22:23;;;;;;;0.73;0.10;;;26.30;45.30;;;;;;5072266;28;20138;-52
2022/06/26 06:24:53;;;;;;;1.55;0.20;;;26.30;45.30;;;;;;5060529;28;20467;-52
2022/06/26 06:27:20;;;;;;;1.30;0.70;;;26.30;45.30;;;;;;5061284;28;20052;-51
2022/06/26 06:29:49;;;;;;;2.88;0.95;;;26.30;45.40;;;;;;5081479;28;20037;-53
2022/06/26 06:32:17;;;;;;;4.95;0.43;;;26.30;45.40;;;;;;5082795;28;20129;-53
2022/06/26 06:34:46;;;;;;;1.95;0.57;;;26.30;45.40;;;;;;5060210;28;20613;-54
2022/06/26 06:37:14;;;;;;;2.63;0.10;;;26.30;45.40;;;;;;5054865;28;20535;-56
2022/06/26 06:39:43;;;;;;;1.95;0.20;;;26.30;45.40;;;;;;5077981;28;20536;-48
2022/06/26 06:42:11;;;;;;;1.58;0.20;;;26.30;45.40;;;;;;5064412;28;20044;-53
2022/06/26 06:44:38;;;;;;;0.73;0.30;;;26.40;45.50;;;;;;5076755;28;20040;-52
2022/06/26 06:47:26;;;;;;;0.38;0.10;;;26.40;45.40;;;;;;5081853;28;20043;-51
2022/06/26 06:50:11;;;;;;;1.08;0.20;;;26.40;45.30;;;;;;5073682;28;20509;-51
2022/06/26 06:52:38;;;;;;;0.65;0.40;;;26.40;45.30;;;;;;5056247;28;20488;-50
2022/06/26 06:55:06;;;;;;;1.08;0.10;;;26.40;45.30;;;;;;5054035;28;20045;-50
2022/06/26 06:57:34;;;;;;;1.15;0.30;;;26.40;45.30;;;;;;5076330;28;20476;-52
2022/06/26 07:00:02;;;;;;;1.10;0.15;;;26.50;45.30;;;;;;5077428;28;20461;-50
2022/06/26 07:02:31;;;;;;;0.50;0.10;;;26.50;45.20;;;;;;5057334;28;20448;-52
2022/06/26 07:05:00;;;;;;;1.75;0.20;;;26.50;45.20;;;;;;5079855;28;20056;-55
2022/06/26 07:07:28;;;;;;;1.05;0.10;;;26.50;45.20;;;;;;5057205;28;20503;-53
2022/06/26 07:09:55;;;;;;;1.13;0.10;;;26.50;45.20;;;;;;5065862;28;20124;-52
2022/06/26 07:12:24;;;;;;;2.03;0.50;;;26.50;45.20;;;;;;5089335;28;20500;-55
2022/06/26 07:14:51;;;;;;;1.55;0.45;;;26.50;45.10;;;;;;5077342;28;20049;-49
2022/06/26 07:17:18;;;;;;;1.65;0.10;;;26.60;45.00;;;;;;5073188;28;20049;-53
2022/06/26 07:19:53;;;;;;;0.20;0.20;;;26.60;45.00;;;;;;5076416;28;20079;-50
2022/06/26 07:22:20;;;;;;;1.45;0.10;;;26.60;44.90;;;;;;5072161;28;20052;-48
2022/06/26 07:24:49;;;;;;;0.65;0.20;;;26.60;44.80;;;;;;5079472;28;20053;-48
2022/06/26 07:27:44;;;;;;;0.28;0.10;;;26.60;44.70;;;;;;5025071;28;20105;-52
2022/06/26 07:30:12;;;;;;;0.20;0.10;;;26.60;44.70;;;;;;5030153;28;20061;-50
2022/06/26 07:33:04;;;;;;;0.73;0.40;;;26.70;44.70;;;;;;5033156;28;20085;-49
2022/06/26 07:35:33;;;;;;;1.75;0.10;;;26.70;44.60;;;;;;5000487;28;20068;-52
2022/06/26 07:38:04;;;;;;;1.27;0.22;;;26.70;44.60;;;;;;5029412;28;20049;-49
2022/06/26 07:40:32;;;;;;;1.25;0.10;;;26.70;44.50;;;;;;5029454;28;20053;-50
2022/06/26 07:43:02;;;;;;;0.20;0.17;;;26.70;44.40;;;;;;5024762;28;20064;-52
2022/06/26 07:45:35;;;;;;;0.75;0.10;;;26.70;44.40;;;;;;5010568;28;20057;-51
2022/06/26 07:48:06;;;;;;;1.08;0.10;;;26.80;44.40;;;;;;5034269;28;20321;-50
2022/06/26 07:50:38;;;;;;;0.10;0.10;;;26.80;44.40;;;;;;5002310;28;20049;-54
2022/06/26 07:53:05;;;;;;;0.55;0.10;;;26.80;44.30;;;;;;5027341;28;20065;-55
2022/06/26 07:55:32;;;;;;;1.02;0.30;;;26.80;44.20;;;;;;5025942;28;20052;-54
2022/06/26 07:57:59;;;;;;;1.48;0.10;;;26.80;44.10;;;;;;5028630;28;20411;-49
2022/06/26 08:00:27;;;;;;;0.20;0.10;;;26.90;44.10;;;;;;5028430;28;20056;-47
2022/06/26 08:02:54;;;;;;;0.73;0.10;;;26.80;44.60;;;;;;5028583;28;20045;-52
2022/06/26 08:05:21;;;;;;;1.13;0.20;;;26.80;43.90;;;;;;5067812;28;20060;-53
2022/06/26 08:07:49;;;;;;;1.08;0.20;;;26.90;43.90;;;;;;5071951;28;20044;-50
2022/06/26 08:10:16;;;;;;;2.05;0.10;;;26.90;43.80;;;;;;5071545;28;20048;-50
2022/06/26 08:12:44;;;;;;;0.32;0.32;;;26.90;43.80;;;;;;5083540;28;20041;-50
2022/06/26 08:15:11;;;;;;;0.30;0.30;;;26.90;43.70;;;;;;5078995;28;20707;-52
2022/06/26 08:17:39;;;;;;;0.40;0.20;;;26.90;43.70;;;;;;5074591;28;20059;-51
2022/06/26 08:20:07;;;;;;;0.20;0.10;;;26.90;43.60;;;;;;5078550;28;20040;-50
2022/06/26 08:22:34;;;;;;;0.20;0.10;;;27.00;43.60;;;;;;5077102;28;20074;-52
2022/06/26 08:25:03;;;;;;;0.60;0.10;;;26.90;43.40;;;;;;5073189;28;20463;-49
2022/06/26 08:27:30;;;;;;;0.82;0.20;;;27.00;43.50;;;;;;5069965;28;20048;-55
2022/06/26 08:29:57;;;;;;;1.05;0.10;;;27.00;43.40;;;;;;5074578;28;20076;-54
2022/06/26 08:32:25;;;;;;;0.30;0.10;;;27.00;43.30;;;;;;5079008;28;20055;-53
2022/06/26 08:34:52;;;;;;;0.40;0.10;;;27.00;43.30;;;;;;5075977;28;20084;-50
2022/06/26 08:37:19;;;;;;;0.43;0.20;;;27.00;43.20;;;;;;5070336;28;20519;-53
2022/06/26 08:39:46;;;;;;;0.98;0.38;;;27.00;43.10;;;;;;5073599;28;20057;-55
2022/06/26 08:42:14;;;;;;;0.45;0.10;;;27.00;43.10;;;;;;5084876;28;20044;-53
2022/06/26 08:44:44;;;;;;;0.93;0.68;;;27.10;43.20;;;;;;5081704;28;20435;-52
2022/06/26 08:47:12;;;;;;;0.40;0.10;;;27.10;43.10;;;;;;5081062;28;20056;-54
2022/06/26 08:49:41;;;;;;;1.75;0.52;;;27.10;43.00;;;;;;5071723;28;20155;-54
2022/06/26 08:52:10;;;;;;;0.43;0.20;;;27.10;42.90;;;;;;5068763;28;20036;-51
2022/06/26 08:54:38;;;;;;;1.08;1.00;;;27.10;42.90;;;;;;5071695;28;20075;-52
2022/06/26 08:57:05;;;;;;;2.58;0.10;;;27.10;42.80;;;;;;5076824;28;20044;-52
2022/06/26 08:59:34;;;;;;;1.88;0.47;;;27.10;42.80;;;;;;5071478;28;20044;-49
2022/06/26 09:02:01;;;;;;;0.25;0.10;;;27.10;43.40;;;;;;5075632;28;20044;-53
2022/06/26 09:04:28;;;;;;;0.10;0.10;;;27.10;42.70;;;;;;5071487;28;20040;-51
2022/06/26 09:06:56;;;;;;;0.52;0.15;;;27.20;42.70;;;;;;5082336;28;20127;-51
2022/06/26 09:09:25;;;;;;;0.47;0.25;;;27.20;42.60;;;;;;5071759;28;20153;-51
2022/06/26 09:11:56;;;;;;;0.40;0.10;;;27.20;42.50;;;;;;5084311;28;20492;-54
2022/06/26 09:14:24;;;;;;;0.10;0.10;;;27.20;42.50;;;;;;5080475;28;20397;-50
2022/06/26 09:16:54;;;;;;;0.57;0.10;;;27.20;42.40;;;;;;5071055;28;20048;-51
2022/06/26 09:19:24;;;;;;;1.08;0.17;;;27.20;42.40;;;;;;5067080;28;20049;-53
2022/06/26 09:21:52;;;;;;;2.42;0.43;;;27.20;42.30;;;;;;5066915;28;20132;-50
2022/06/26 09:24:22;;;;;;;1.30;0.10;;;27.30;42.30;;;;;;5081366;28;20040;-49
2022/06/26 09:27:02;;;;;;;0.75;0.30;;;27.30;42.20;;;;;;5071640;28;20041;-53
2022/06/26 09:29:30;;;;;;;0.80;0.75;;;27.30;42.10;;;;;;5075127;28;20120;-51
2022/06/26 09:32:10;;;;;;;2.65;0.10;;;27.30;42.10;;;;;;5071015;28;20428;-51
2022/06/26 09:34:38;;;;;;;0.65;0.22;;;27.30;42.10;;;;;;5072213;28;20576;-52
2022/06/26 09:37:07;;;;;;;0.30;0.10;;;27.30;42.10;;;;;;5069249;28;20528;-52
2022/06/26 09:39:35;;;;;;;0.40;0.20;;;27.30;42.00;;;;;;5071808;28;20048;-53
2022/06/26 09:42:17;;;;;;;0.10;0.10;;;27.40;42.00;;;;;;5083341;28;20036;-51
2022/06/26 09:44:45;;;;;;;0.50;0.10;;;27.40;41.80;;;;;;5073747;28;20055;-53
2022/06/26 09:47:28;;;;;;;0.10;0.08;;;27.30;41.80;;;;;;5080178;28;20131;-54
2022/06/26 09:49:56;;;;;;;0.25;0.20;;;27.40;42.30;;;;;;5070814;28;20452;-51
2022/06/26 09:52:25;;;;;;;1.35;0.30;;;27.30;41.60;;;;;;5070424;28;20039;-53
2022/06/26 09:54:54;;;;;;;0.43;0.10;;;27.30;41.60;;;;;;5068467;28;20543;-51
2022/06/26 09:57:22;;;;;;;4.47;0.10;;;27.30;41.50;;;;;;5081993;28;20048;-52
2022/06/26 09:59:49;;;;;;;0.80;0.10;;;27.30;41.50;;;;;;5075935;28;20068;-49
2022/06/26 10:07:53;;;;;;;0.55;0.10;;;27.30;41.40;;;;;;5074606;28;20045;-51
2022/06/26 10:10:21;;;;;;;1.25;0.55;;;27.30;41.40;;;;;;5071651;28;20036;-52
2022/06/26 10:12:52;;;;;;;1.98;0.10;;;27.30;41.40;;;;;;5069746;28;20094;-54
2022/06/26 10:15:21;;;;;;;0.10;0.10;;;27.30;41.30;;;;;;5077829;28;20143;-52
2022/06/26 10:18:16;;;;;;;0.95;0.10;;;27.30;41.20;;;;;;5075110;28;20128;-51
2022/06/26 10:20:45;;;;;;;0.43;0.28;;;27.40;41.20;;;;;;5086344;28;20032;-55
2022/06/26 10:23:12;;;;;;;0.15;0.10;;;27.30;41.20;;;;;;5080327;28;20044;-54
2022/06/26 10:25:46;;;;;;;0.57;0.25;;;27.30;41.20;;;;;;5083881;28;20119;-50
2022/06/26 10:28:19;;;;;;;0.32;0.32;;;27.40;41.20;;;;;;5072448;28;20032;-48
2022/06/26 10:30:46;;;;;;;1.13;0.17;;;27.40;41.10;;;;;;5075221;28;20777;-49
2022/06/26 10:33:16;;;;;;;0.25;0.10;;;27.40;41.10;;;;;;5089868;28;20054;-51
2022/06/26 10:35:47;;;;;;;1.23;0.10;;;27.40;40.60;;;;;;5076844;28;20114;-52
2022/06/26 10:38:19;;;;;;;0.10;0.10;;;27.40;41.20;;;;;;5076221;28;20044;-52
2022/06/26 10:43:44;;;;;;;2.40;0.15;;;27.40;40.90;;;;;;5084015;28;20040;-52
2022/06/26 10:46:13;;;;;;;0.13;0.10;;;27.50;40.90;;;;;;5076592;28;20479;-55
2022/06/26 10:48:50;;;;;;;0.93;0.10;;;27.50;40.90;;;;;;5076146;28;20040;-53
2022/06/26 10:51:27;;;;;;;0.63;0.00;;;27.50;40.80;;;;;;5075475;28;20566;-54
2022/06/26 10:53:55;;;;;;;1.10;0.10;;;27.50;40.70;;;;;;5062553;28;20051;-52
2022/06/26 10:56:22;;;;;;;0.10;0.10;;;27.50;40.70;;;;;;5078179;28;20051;-50
2022/06/26 10:58:58;;;;;;;0.43;0.10;;;27.50;40.60;;;;;;5073657;28;20199;-53
2022/06/26 11:01:27;;;;;;;0.38;0.10;;;27.50;40.60;;;;;;5073420;28;20122;-50
2022/06/26 11:03:54;;;;;;;0.68;0.10;;;27.60;40.60;;;;;;5068985;28;20051;-50
2022/06/26 11:06:28;;;;;;;1.27;0.13;;;27.60;40.50;;;;;;5080111;28;20393;-52
2022/06/26 11:08:56;;;;;;;1.08;0.20;;;27.60;40.40;;;;;;5074421;28;20045;-52
2022/06/26 11:11:30;;;;;;;0.88;0.10;;;27.60;40.30;;;;;;5081336;28;20040;-53
2022/06/26 11:13:59;;;;;;;0.22;0.13;;;27.70;40.30;;;;;;5083814;28;20093;-54
2022/06/26 11:16:31;;;;;;;1.38;0.10;;;27.70;40.20;;;;;;5074514;28;20087;-52
2022/06/26 11:18:58;;;;;;;0.82;0.10;;;27.70;40.10;;;;;;5069479;28;20489;-54
2022/06/26 11:21:26;;;;;;;0.10;0.10;;;27.70;40.10;;;;;;5076603;28;20048;-51
2022/06/26 11:23:55;;;;;;;0.32;0.10;;;27.70;40.00;;;;;;5088920;28;20044;-53
2022/06/26 11:26:23;;;;;;;0.20;0.10;;;27.80;40.00;;;;;;5078391;28;20037;-53
2022/06/26 11:28:56;;;;;;;0.20;0.10;;;27.80;40.00;;;;;;5075927;28;20930;-51
2022/06/26 11:31:26;;;;;;;1.05;0.10;;;27.80;39.90;;;;;;5072810;28;20673;-53
2022/06/26 11:33:53;;;;;;;0.25;0.10;;;27.90;39.90;;;;;;5068534;28;20404;-51
2022/06/26 11:36:22;;;;;;;0.20;0.20;;;27.80;39.80;;;;;;5072577;28;20049;-52
2022/06/26 11:38:53;;;;;;;0.10;0.00;;;27.90;40.40;;;;;;5078500;28;20040;-51
2022/06/26 11:41:22;;;;;;;0.73;0.13;;;27.90;39.70;;;;;;5078214;28;20036;-52
2022/06/26 11:43:51;;;;;;;0.32;0.10;;;27.90;39.70;;;;;;5075373;28;20028;-48
2022/06/26 11:46:18;;;;;;;1.90;0.15;;;28.00;39.70;;;;;;5075761;28;20078;-51
2022/06/26 11:48:46;;;;;;;0.90;0.10;;;27.90;39.60;;;;;;5073849;28;20047;-50
2022/06/26 11:51:14;;;;;;;0.77;0.10;;;28.00;39.60;;;;;;5073715;28;20098;-50
2022/06/26 11:53:44;;;;;;;0.30;0.10;;;28.00;39.50;;;;;;5075320;28;20048;-54
2022/06/26 11:56:19;;;;;;;0.52;0.10;;;28.10;39.60;;;;;;5073329;28;20051;-50
2022/06/26 11:58:50;;;;;;;0.43;0.10;;;28.10;39.50;;;;;;5071800;28;20040;-52
2022/06/26 12:01:18;;;;;;;0.80;0.10;;;28.10;39.50;;;;;;5069378;28;20505;-50
2022/06/26 12:03:53;;;;;;;0.65;0.10;;;28.10;39.50;;;;;;5072390;28;20132;-51
2022/06/26 12:06:29;;;;;;;0.10;0.10;;;28.20;39.40;;;;;;5075539;28;20048;-51
2022/06/26 12:08:56;;;;;;;0.25;0.17;;;28.20;39.40;;;;;;5075518;28;20045;-50
2022/06/26 12:11:23;;;;;;;0.95;0.30;;;28.30;39.50;;;;;;5079291;28;20032;-53
2022/06/26 12:13:52;;;;;;;0.38;0.10;;;28.30;39.40;;;;;;5083488;28;20089;-53
2022/06/26 12:16:21;;;;;;;0.10;0.10;;;28.40;39.40;;;;;;5074511;28;20539;-52
2022/06/26 12:18:50;;;;;;;0.50;0.10;;;28.40;39.30;;;;;;5052943;28;20036;-50
2022/06/26 12:21:20;;;;;;;0.50;0.10;;;28.40;39.20;;;;;;5077609;28;20536;-49
2022/06/26 12:23:48;;;;;;;0.10;0.10;;;28.40;39.10;;;;;;5071950;28;20126;-53
2022/06/26 12:26:18;;;;;;;1.17;0.10;;;28.50;39.10;;;;;;5073960;28;20039;-51
2022/06/26 12:28:48;;;;;;;0.10;0.08;;;28.50;39.00;;;;;;5069809;28;20036;-50
2022/06/26 12:31:17;;;;;;;0.50;0.10;;;28.50;39.00;;;;;;5072000;28;20133;-53
2022/06/26 12:33:45;;;;;;;0.15;0.10;;;28.50;38.90;;;;;;5068308;28;20040;-50
2022/06/26 12:36:12;;;;;;;0.22;0.22;;;28.50;38.90;;;;;;5075532;28;20564;-54
2022/06/26 12:38:40;;;;;;;0.10;0.00;;;28.60;38.90;;;;;;5076956;28;20083;-53
2022/06/26 12:41:16;;;;;;;0.20;0.20;;;28.60;38.90;;;;;;5074964;28;20362;-54
2022/06/26 12:43:45;;;;;;;0.15;0.15;;;28.60;38.90;;;;;;5081895;28;20097;-51
2022/06/26 12:46:12;;;;;;;0.22;0.10;;;28.60;38.80;;;;;;5075694;28;20108;-53
2022/06/26 12:48:41;;;;;;;0.43;0.43;;;28.60;38.80;;;;;;5073000;28;20528;-50
2022/06/26 12:51:08;;;;;;;0.40;0.10;;;28.60;38.70;;;;;;5073362;28;20432;-52
2022/06/26 12:53:35;;;;;;;0.20;0.10;;;28.70;38.70;;;;;;5074523;28;20043;-55
2022/06/26 12:56:03;;;;;;;0.50;0.10;;;28.70;38.60;;;;;;5075782;28;20094;-51
2022/06/26 12:58:30;;;;;;;0.20;0.10;;;28.70;38.50;;;;;;5071807;28;20062;-51
2022/06/26 13:00:57;;;;;;;0.65;0.10;;;28.80;38.50;;;;;;5067162;28;20067;-54
2022/06/26 13:03:24;;;;;;;0.63;0.52;;;28.90;38.40;;;;;;5074537;28;20037;-54
2022/06/26 13:05:53;;;;;;;0.30;0.20;;;28.90;38.30;;;;;;5078144;28;20078;-52
2022/06/26 13:08:20;;;;;;;0.50;0.10;;;29.00;38.20;;;;;;5071146;28;20055;-54
2022/06/26 13:10:48;;;;;;;0.20;0.10;;;29.10;38.10;;;;;;5073547;28;20043;-52
2022/06/26 13:13:15;;;;;;;3.35;0.10;;;29.10;38.00;;;;;;5082146;28;20433;-53
2022/06/26 13:15:43;;;;;;;1.75;0.10;;;29.20;37.90;;;;;;5073883;28;20110;-49